Time,TemperatureF,DewpointF,PressureIn,WindDirection,WindDirectionDegrees,WindSpeedMPH,WindSpeedGustMPH,Humidity,HourlyPrecipIn,Conditions,Clouds,dailyrainin,SoftwareType,DateUTC
2013-01-28 00:00:00,28.8,26.2,30.11,SSE,147,12.5,12.5,90,0.00,,---,0.00,VWS V14.01,2013-01-28 05:00:00,
2013-01-28 00:01:00,28.9,26.4,30.11,SE,127,8.1,12.5,90,0.00,,---,0.00,VWS V14.01,2013-01-28 05:01:00,
2013-01-28 00:03:00,28.9,26.4,30.11,SE,128,5.4,7.2,90,0.00,,---,0.00,VWS V14.01,2013-01-28 05:03:00,
2013-01-28 00:08:00,29.1,26.6,30.11,South,186,6.3,6.3,90,0.00,,---,0.00,VWS V14.01,2013-01-28 05:08:00,
2013-01-28 00:13:00,29.1,26.6,30.11,South,170,10.7,10.7,90,0.00,,---,0.00,VWS V14.01,2013-01-28 05:13:00,
2013-01-28 00:18:00,29.3,26.7,30.11,SE,136,6.3,6.3,90,0.00,,---,0.00,VWS V14.01,2013-01-28 05:18:00,
2013-01-28 00:23:00,29.5,26.9,30.11,South,179,12.5,12.5,90,0.00,,---,0.00,VWS V14.01,2013-01-28 05:23:00,
2013-01-28 00:28:00,29.5,26.9,30.11,ESE,108,8.1,8.1,90,0.00,,---,0.00,VWS V14.01,2013-01-28 05:28:00,
2013-01-28 00:33:00,29.5,26.9,30.11,SE,136,5.4,5.4,90,0.00,,---,0.00,VWS V14.01,2013-01-28 05:33:00,
2013-01-28 00:38:00,29.5,26.9,30.11,ESE,113,4.5,5.4,90,0.00,,---,0.00,VWS V14.01,2013-01-28 05:38:00,
2013-01-28 00:43:00,29.5,26.9,30.11,ENE,78,6.3,6.3,90,0.00,,---,0.00,VWS V14.01,2013-01-28 05:43:00,
2013-01-28 00:48:00,29.5,26.9,30.11,South,170,7.2,11.6,90,0.00,,---,0.00,VWS V14.01,2013-01-28 05:48:00,
2013-01-28 00:54:00,29.7,27.1,30.11,SE,140,13.4,13.4,90,0.00,,---,0.00,VWS V14.01,2013-01-28 05:54:00,
2013-01-28 00:59:00,29.7,27.1,30.11,SE,140,0.0,7.2,90,0.00,,---,0.00,VWS V14.01,2013-01-28 05:59:00,
2013-01-28 01:04:00,29.8,27.5,30.11,SE,140,5.4,7.2,91,0.00,,---,0.00,VWS V14.01,2013-01-28 06:04:00,
2013-01-28 01:09:00,29.8,27.3,30.08,SE,141,4.5,5.4,90,0.00,,---,0.00,VWS V14.01,2013-01-28 06:09:00,
2013-01-28 01:14:00,29.8,27.3,30.08,SE,140,6.3,6.3,90,0.00,,---,0.00,VWS V14.01,2013-01-28 06:14:00,
2013-01-28 01:19:00,29.8,27.3,30.08,SE,140,4.5,5.4,90,0.00,,---,0.00,VWS V14.01,2013-01-28 06:19:00,
2013-01-28 01:24:00,29.8,27.3,30.08,SE,140,4.5,5.4,90,0.00,,---,0.00,VWS V14.01,2013-01-28 06:24:00,
2013-01-28 01:29:00,29.7,27.1,30.08,SE,140,7.2,7.2,90,0.00,,---,0.00,VWS V14.01,2013-01-28 06:29:00,
2013-01-28 01:34:00,29.7,27.1,30.08,SE,140,6.3,6.3,90,0.00,,---,0.00,VWS V14.01,2013-01-28 06:34:00,
2013-01-28 01:39:00,29.7,27.4,30.08,SE,140,4.5,6.3,91,0.00,,---,0.00,VWS V14.01,2013-01-28 06:39:00,
2013-01-28 01:44:00,29.7,27.4,30.08,SE,140,7.2,7.2,91,0.00,,---,0.00,VWS V14.01,2013-01-28 06:44:00,
2013-01-28 01:49:00,29.7,27.4,30.08,SE,141,6.3,7.2,91,0.00,,---,0.00,VWS V14.01,2013-01-28 06:49:00,
2013-01-28 01:55:00,29.7,27.4,30.05,SE,140,7.2,12.5,91,0.00,,---,0.00,VWS V14.01,2013-01-28 06:55:00,
2013-01-28 02:00:00,29.7,27.4,30.05,SE,141,12.5,12.5,91,0.00,,---,0.00,VWS V14.01,2013-01-28 07:00:00,
2013-01-28 02:05:00,29.7,27.4,30.05,SE,141,7.2,7.2,91,0.00,,---,0.00,VWS V14.01,2013-01-28 07:05:00,
2013-01-28 02:10:00,29.7,27.4,30.05,SE,140,8.1,8.1,91,0.00,,---,0.00,VWS V14.01,2013-01-28 07:10:00,
2013-01-28 02:15:00,29.8,27.8,30.05,SE,140,8.1,9.8,92,0.00,,---,0.00,VWS V14.01,2013-01-28 07:15:00,
2013-01-28 02:20:00,29.8,27.8,30.05,SE,140,10.7,14.3,92,0.00,,---,0.00,VWS V14.01,2013-01-28 07:20:00,
2013-01-28 02:25:00,29.8,27.8,30.05,SE,140,5.4,7.2,92,0.00,,---,0.00,VWS V14.01,2013-01-28 07:25:00,
2013-01-28 02:30:00,30.0,28.0,30.05,SE,141,5.4,5.4,92,0.00,,---,0.00,VWS V14.01,2013-01-28 07:30:00,
2013-01-28 02:35:00,30.0,28.0,30.05,SE,140,8.1,8.1,92,0.00,,---,0.00,VWS V14.01,2013-01-28 07:35:00,
2013-01-28 02:40:00,30.2,28.4,30.05,SE,141,6.3,6.3,93,0.00,,---,0.00,VWS V14.01,2013-01-28 07:40:00,
2013-01-28 02:45:00,30.6,28.5,30.05,SSE,152,10.7,10.7,92,0.00,,---,0.00,VWS V14.01,2013-01-28 07:45:00,
2013-01-28 02:50:00,30.9,29.1,30.05,ESE,104,0.0,0.0,93,0.00,,---,0.00,VWS V14.01,2013-01-28 07:50:00,
2013-01-28 02:55:00,31.1,29.3,30.02,SSE,153,0.0,0.0,93,0.00,,---,0.00,VWS V14.01,2013-01-28 07:55:00,
2013-01-28 03:00:00,31.3,29.5,30.02,SE,127,0.0,0.0,93,0.00,,---,0.00,VWS V14.01,2013-01-28 08:00:00,
2013-01-28 03:05:00,31.3,29.5,30.02,SE,126,0.0,0.0,93,0.00,,---,0.00,VWS V14.01,2013-01-28 08:05:00,
2013-01-28 03:10:00,31.3,29.5,30.02,SE,126,0.0,0.0,93,0.00,,---,0.00,VWS V14.01,2013-01-28 08:10:00,
2013-01-28 03:16:00,31.1,29.3,30.02,SE,126,0.0,0.0,93,0.00,,---,0.00,VWS V14.01,2013-01-28 08:16:00,
2013-01-28 03:21:00,31.1,29.3,30.02,SE,126,0.0,0.0,93,0.00,,---,0.00,VWS V14.01,2013-01-28 08:21:00,
2013-01-28 03:26:00,31.1,29.3,30.02,SE,126,0.0,0.0,93,0.00,,---,0.00,VWS V14.01,2013-01-28 08:26:00,
2013-01-28 03:31:00,31.1,29.3,30.02,SE,126,0.0,0.0,93,0.00,,---,0.00,VWS V14.01,2013-01-28 08:31:00,
2013-01-28 03:36:00,31.3,29.5,30.02,SE,126,0.0,0.0,93,0.00,,---,0.00,VWS V14.01,2013-01-28 08:36:00,
2013-01-28 03:41:00,31.5,29.9,30.02,SE,126,0.0,0.0,94,0.00,,---,0.00,VWS V14.01,2013-01-28 08:41:00,
2013-01-28 03:46:00,31.6,30.1,30.02,SE,126,0.0,0.0,94,0.00,,---,0.00,VWS V14.01,2013-01-28 08:46:00,
2013-01-28 03:51:00,31.6,30.1,30.02,SE,126,0.0,0.0,94,0.00,,---,0.00,VWS V14.01,2013-01-28 08:51:00,
2013-01-28 03:56:00,31.6,30.1,29.99,SE,126,0.0,0.0,94,0.00,,---,0.00,VWS V14.01,2013-01-28 08:56:00,
2013-01-28 04:01:00,31.6,30.1,29.99,SE,126,0.0,0.0,94,0.00,,---,0.00,VWS V14.01,2013-01-28 09:01:00,
2013-01-28 04:06:00,31.6,30.1,29.99,SE,126,0.0,0.0,94,0.00,,---,0.00,VWS V14.01,2013-01-28 09:06:00,
2013-01-28 04:11:00,31.6,30.1,29.99,SE,126,0.0,0.0,94,0.00,,---,0.00,VWS V14.01,2013-01-28 09:11:00,
2013-01-28 04:16:00,31.8,30.3,29.99,SE,126,0.0,0.0,94,0.00,,---,0.00,VWS V14.01,2013-01-28 09:16:00,
2013-01-28 04:21:00,31.8,30.3,29.99,SE,126,0.0,0.0,94,0.00,,---,0.00,VWS V14.01,2013-01-28 09:21:00,
2013-01-28 04:26:00,31.8,30.3,29.99,SE,126,0.0,0.0,94,0.00,,---,0.00,VWS V14.01,2013-01-28 09:26:00,
2013-01-28 04:31:00,31.8,30.3,29.99,SE,126,0.0,0.0,94,0.00,,---,0.00,VWS V14.01,2013-01-28 09:31:00,
2013-01-28 04:37:00,31.8,30.3,29.96,SE,126,0.0,0.0,94,0.00,,---,0.00,VWS V14.01,2013-01-28 09:37:00,
2013-01-28 04:42:00,31.8,30.3,29.96,SE,126,0.0,0.0,94,0.00,,---,0.00,VWS V14.01,2013-01-28 09:42:00,
2013-01-28 04:47:00,31.8,30.3,29.96,SE,126,0.0,0.0,94,0.00,,---,0.00,VWS V14.01,2013-01-28 09:47:00,
2013-01-28 04:52:00,31.8,30.3,29.96,SE,126,0.0,0.0,94,0.00,,---,0.00,VWS V14.01,2013-01-28 09:52:00,
2013-01-28 04:57:00,31.8,30.3,29.96,SE,126,0.0,0.0,94,0.00,,---,0.00,VWS V14.01,2013-01-28 09:57:00,
2013-01-28 05:02:00,31.8,30.3,29.96,SE,126,0.0,0.0,94,0.00,,---,0.00,VWS V14.01,2013-01-28 10:02:00,
2013-01-28 05:07:00,32.0,30.5,29.96,SE,126,0.0,0.0,94,0.00,,---,0.00,VWS V14.01,2013-01-28 10:07:00,
2013-01-28 05:12:00,32.0,30.5,29.96,SE,126,0.0,0.0,94,0.00,,---,0.00,VWS V14.01,2013-01-28 10:12:00,
2013-01-28 05:17:00,32.0,30.5,29.96,SE,126,0.0,0.0,94,0.00,,---,0.00,VWS V14.01,2013-01-28 10:17:00,
2013-01-28 05:22:00,32.0,30.5,29.96,SE,126,0.0,0.0,94,0.00,,---,0.00,VWS V14.01,2013-01-28 10:22:00,
2013-01-28 05:27:00,32.0,30.5,29.96,SE,126,0.0,0.0,94,0.00,,---,0.00,VWS V14.01,2013-01-28 10:27:00,
2013-01-28 05:32:00,32.0,30.5,29.96,SE,126,0.0,0.0,94,0.00,,---,0.00,VWS V14.01,2013-01-28 10:32:00,
2013-01-28 05:37:00,32.0,30.5,29.96,SE,126,0.0,0.0,94,0.00,,---,0.00,VWS V14.01,2013-01-28 10:37:00,
2013-01-28 05:42:00,32.0,30.5,29.96,SE,126,0.0,0.0,94,0.00,,---,0.00,VWS V14.01,2013-01-28 10:42:00,
2013-01-28 05:47:00,32.2,30.9,29.96,SE,126,0.0,0.0,95,0.00,,---,0.00,VWS V14.01,2013-01-28 10:47:00,
2013-01-28 05:52:00,32.2,30.9,29.93,SE,126,0.0,0.0,95,0.00,,---,0.00,VWS V14.01,2013-01-28 10:52:00,
2013-01-28 05:57:00,32.2,30.9,29.93,SE,126,0.0,0.0,95,0.00,,---,0.00,VWS V14.01,2013-01-28 10:57:00,
2013-01-28 06:02:00,32.2,30.9,29.93,SE,126,0.0,0.0,95,0.00,,---,0.00,VWS V14.01,2013-01-28 11:02:00,
2013-01-28 06:07:00,32.2,30.9,29.93,SE,126,0.0,0.0,95,0.00,,---,0.00,VWS V14.01,2013-01-28 11:07:00,
2013-01-28 06:12:00,32.4,31.1,29.93,SE,126,0.0,0.0,95,0.00,,---,0.00,VWS V14.01,2013-01-28 11:12:00,
2013-01-28 06:17:00,32.4,31.1,29.93,SE,126,0.0,0.0,95,0.00,,---,0.00,VWS V14.01,2013-01-28 11:17:00,
2013-01-28 06:22:00,32.4,31.1,29.93,SE,126,0.0,0.0,95,0.00,,---,0.00,VWS V14.01,2013-01-28 11:22:00,
2013-01-28 06:27:00,32.4,31.1,29.93,SE,126,0.0,0.0,95,0.00,,---,0.00,VWS V14.01,2013-01-28 11:27:00,
2013-01-28 06:33:00,32.5,31.3,29.93,SE,126,0.0,0.0,95,0.00,,---,0.00,VWS V14.01,2013-01-28 11:33:00,
2013-01-28 06:38:00,32.5,31.3,29.90,SE,126,0.0,0.0,95,0.00,,---,0.00,VWS V14.01,2013-01-28 11:38:00,
2013-01-28 06:43:00,32.5,31.3,29.90,SE,126,0.0,0.0,95,0.00,,---,0.00,VWS V14.01,2013-01-28 11:43:00,
2013-01-28 06:48:00,32.5,31.3,29.90,SE,126,0.0,0.0,95,0.00,,---,0.00,VWS V14.01,2013-01-28 11:48:00,
2013-01-28 06:53:00,32.5,31.3,29.90,SE,126,0.0,0.0,95,0.00,,---,0.00,VWS V14.01,2013-01-28 11:53:00,
2013-01-28 06:58:00,32.5,31.3,29.90,SE,126,0.0,0.0,95,0.00,,---,0.00,VWS V14.01,2013-01-28 11:58:00,
2013-01-28 07:03:00,32.5,31.3,29.90,SE,126,0.0,0.0,95,0.00,,---,0.00,VWS V14.01,2013-01-28 12:03:00,
2013-01-28 07:08:00,32.5,31.3,29.90,SE,126,0.0,0.0,95,0.00,,---,0.00,VWS V14.01,2013-01-28 12:08:00,
2013-01-28 07:13:00,32.5,31.3,29.90,SE,126,0.0,0.0,95,0.00,,---,0.00,VWS V14.01,2013-01-28 12:13:00,
2013-01-28 07:18:00,32.5,31.3,29.90,SE,126,0.0,0.0,95,0.00,,---,0.00,VWS V14.01,2013-01-28 12:18:00,
2013-01-28 07:23:00,32.5,31.3,29.90,SE,126,0.0,0.0,95,0.00,,---,0.00,VWS V14.01,2013-01-28 12:23:00,
2013-01-28 07:28:00,32.5,31.3,29.90,SE,126,0.0,0.0,95,0.00,,---,0.00,VWS V14.01,2013-01-28 12:28:00,
2013-01-28 07:33:00,32.5,31.3,29.90,SE,126,0.0,0.0,95,0.00,,---,0.00,VWS V14.01,2013-01-28 12:33:00,
2013-01-28 07:38:00,32.5,31.3,29.90,SE,126,0.0,0.0,95,0.00,,---,0.00,VWS V14.01,2013-01-28 12:38:00,
2013-01-28 07:43:00,32.5,31.3,29.90,SE,126,0.0,0.0,95,0.00,,---,0.00,VWS V14.01,2013-01-28 12:43:00,
2013-01-28 07:48:00,32.5,31.3,29.90,SE,126,0.0,0.0,95,0.00,,---,0.00,VWS V14.01,2013-01-28 12:48:00,
2013-01-28 07:53:00,32.5,31.3,29.90,SE,126,0.0,0.0,95,0.00,,---,0.00,VWS V14.01,2013-01-28 12:53:00,
2013-01-28 07:58:00,32.5,31.3,29.90,SE,126,0.0,0.0,95,0.00,,---,0.00,VWS V14.01,2013-01-28 12:58:00,
2013-01-28 08:03:00,32.7,31.7,29.90,SE,126,0.0,0.0,96,0.00,,---,0.00,VWS V14.01,2013-01-28 13:03:00,
2013-01-28 08:08:00,32.7,31.7,29.90,SE,126,0.0,0.0,96,0.00,,---,0.00,VWS V14.01,2013-01-28 13:08:00,
2013-01-28 08:14:00,32.7,31.7,29.90,SE,126,0.0,0.0,96,0.00,,---,0.00,VWS V14.01,2013-01-28 13:14:00,
2013-01-28 08:19:00,32.7,31.7,29.90,SE,126,0.0,0.0,96,0.00,,---,0.00,VWS V14.01,2013-01-28 13:19:00,
2013-01-28 08:24:00,32.7,31.7,29.87,SE,126,0.0,0.0,96,0.00,,---,0.00,VWS V14.01,2013-01-28 13:24:00,
2013-01-28 08:29:00,32.7,31.7,29.87,SE,126,0.0,0.0,96,0.00,,---,0.00,VWS V14.01,2013-01-28 13:29:00,
2013-01-28 08:34:00,32.7,31.7,29.87,SE,126,0.0,0.0,96,0.00,,---,0.00,VWS V14.01,2013-01-28 13:34:00,
2013-01-28 08:39:00,32.7,31.7,29.87,SE,126,0.0,0.0,96,0.00,,---,0.00,VWS V14.01,2013-01-28 13:39:00,
2013-01-28 08:44:00,32.7,31.7,29.87,SE,126,0.0,0.0,96,0.00,,---,0.00,VWS V14.01,2013-01-28 13:44:00,
2013-01-28 08:49:00,32.7,31.7,29.87,SE,126,0.0,0.0,96,0.00,,---,0.00,VWS V14.01,2013-01-28 13:49:00,
2013-01-28 08:54:00,32.7,31.7,29.87,SE,126,0.0,0.0,96,0.00,,---,0.00,VWS V14.01,2013-01-28 13:54:00,
2013-01-28 08:59:00,32.9,31.9,29.87,SE,126,0.0,0.0,96,0.00,,---,0.00,VWS V14.01,2013-01-28 13:59:00,
2013-01-28 09:04:00,32.9,31.9,29.87,SE,126,0.0,0.0,96,0.00,,---,0.00,VWS V14.01,2013-01-28 14:04:00,
2013-01-28 09:09:00,32.7,31.7,29.87,SE,126,0.0,0.0,96,0.00,,---,0.00,VWS V14.01,2013-01-28 14:09:00,
2013-01-28 09:14:00,32.9,31.9,29.87,SE,126,0.0,0.0,96,0.00,,---,0.00,VWS V14.01,2013-01-28 14:14:00,
2013-01-28 09:19:00,32.9,31.9,29.87,SE,126,0.0,0.0,96,0.00,,---,0.00,VWS V14.01,2013-01-28 14:19:00,
2013-01-28 09:24:00,32.9,31.9,29.87,SE,126,0.0,0.0,96,0.00,,---,0.00,VWS V14.01,2013-01-28 14:24:00,
2013-01-28 09:30:00,32.9,31.9,29.87,SE,126,0.0,0.0,96,0.00,,---,0.00,VWS V14.01,2013-01-28 14:30:00,
2013-01-28 09:35:00,32.9,31.9,29.87,SE,126,0.0,0.0,96,0.00,,---,0.00,VWS V14.01,2013-01-28 14:35:00,
2013-01-28 09:40:00,32.9,31.9,29.87,SE,126,0.0,0.0,96,0.00,,---,0.00,VWS V14.01,2013-01-28 14:40:00,
2013-01-28 09:45:00,32.9,31.9,29.87,SE,126,0.0,0.0,96,0.00,,---,0.00,VWS V14.01,2013-01-28 14:45:00,
2013-01-28 09:50:00,32.9,31.9,29.87,SE,126,0.0,0.0,96,0.00,,---,0.00,VWS V14.01,2013-01-28 14:50:00,
2013-01-28 09:55:00,33.1,32.1,29.87,SE,126,0.0,0.0,96,0.00,,---,0.00,VWS V14.01,2013-01-28 14:55:00,
2013-01-28 10:00:00,33.1,32.1,29.87,SE,126,0.0,0.0,96,0.00,,---,0.00,VWS V14.01,2013-01-28 15:00:00,
2013-01-28 10:05:00,33.1,32.1,29.87,SE,126,0.0,0.0,96,0.00,,---,0.00,VWS V14.01,2013-01-28 15:05:00,
2013-01-28 10:10:00,33.3,32.2,29.87,SE,126,0.0,0.0,96,0.00,,---,0.00,VWS V14.01,2013-01-28 15:10:00,
2013-01-28 10:15:00,33.3,32.2,29.87,SE,126,0.0,0.0,96,0.00,,---,0.00,VWS V14.01,2013-01-28 15:15:00,
2013-01-28 10:20:00,33.4,32.4,29.87,SE,126,0.0,0.0,96,0.00,,---,0.00,VWS V14.01,2013-01-28 15:20:00,
2013-01-28 10:25:00,33.4,32.4,29.87,SE,126,0.0,0.0,96,0.00,,---,0.00,VWS V14.01,2013-01-28 15:25:00,
2013-01-28 10:30:00,33.6,32.6,29.87,SE,126,0.0,0.0,96,0.00,,---,0.00,VWS V14.01,2013-01-28 15:30:00,
2013-01-28 10:35:00,33.8,32.8,29.87,SE,126,0.0,0.0,96,0.00,,---,0.00,VWS V14.01,2013-01-28 15:35:00,
2013-01-28 10:40:00,34.0,33.0,29.87,SE,126,0.0,0.0,96,0.00,,---,0.00,VWS V14.01,2013-01-28 15:40:00,
2013-01-28 10:45:00,34.2,33.1,29.87,SE,145,0.0,0.0,96,0.00,,---,0.00,VWS V14.01,2013-01-28 15:45:00,
2013-01-28 10:50:00,34.3,33.3,29.87,SSE,160,0.0,0.0,96,0.00,,---,0.00,VWS V14.01,2013-01-28 15:50:00,
2013-01-28 10:55:00,34.7,33.9,29.87,South,170,0.0,0.0,97,0.00,,---,0.00,VWS V14.01,2013-01-28 15:55:00,
2013-01-28 11:00:00,35.1,34.3,29.87,South,176,0.0,0.0,97,0.00,,---,0.00,VWS V14.01,2013-01-28 16:00:00,
2013-01-28 11:05:00,35.4,34.7,29.87,South,184,0.0,0.0,97,0.00,,---,0.00,VWS V14.01,2013-01-28 16:05:00,
2013-01-28 11:11:00,35.8,35.0,29.87,South,187,0.0,6.3,97,0.00,,---,0.00,VWS V14.01,2013-01-28 16:11:00,
2013-01-28 11:16:00,36.3,35.5,29.87,SW,216,0.0,6.3,97,0.00,,---,0.00,VWS V14.01,2013-01-28 16:16:00,
2013-01-28 11:21:00,36.9,36.1,29.87,SW,223,0.0,8.1,97,0.00,,---,0.00,VWS V14.01,2013-01-28 16:21:00,
2013-01-28 11:26:00,37.2,36.7,29.87,SW,214,6.3,7.2,98,0.00,,---,0.00,VWS V14.01,2013-01-28 16:26:00,
2013-01-28 11:31:00,37.8,37.0,29.87,SSE,159,0.0,5.4,97,0.00,,---,0.00,VWS V14.01,2013-01-28 16:31:00,
2013-01-28 11:36:00,38.1,37.3,29.87,South,170,6.3,9.8,97,0.00,,---,0.00,VWS V14.01,2013-01-28 16:36:00,
2013-01-28 11:41:00,38.7,38.2,29.87,South,185,6.3,9.8,98,0.00,,---,0.00,VWS V14.01,2013-01-28 16:41:00,
2013-01-28 11:46:00,38.8,38.3,29.87,South,184,4.5,8.1,98,0.00,,---,0.00,VWS V14.01,2013-01-28 16:46:00,
2013-01-28 11:51:00,39.2,38.4,29.87,SSE,162,6.3,12.5,97,0.00,,---,0.00,VWS V14.01,2013-01-28 16:51:00,
2013-01-28 11:56:00,39.4,38.9,29.87,South,169,5.4,12.5,98,0.00,,---,0.00,VWS V14.01,2013-01-28 16:56:00,
2013-01-28 12:01:00,39.7,39.2,29.87,South,176,6.3,10.7,98,0.00,,---,0.00,VWS V14.01,2013-01-28 17:01:00,
2013-01-28 12:06:00,39.9,39.4,29.87,SSW,213,10.7,10.7,98,0.00,,---,0.00,VWS V14.01,2013-01-28 17:06:00,
2013-01-28 12:11:00,40.1,39.6,29.87,SW,233,8.1,8.1,98,0.00,,---,0.00,VWS V14.01,2013-01-28 17:11:00,
2013-01-28 12:16:00,40.1,39.6,29.87,SSW,212,9.8,10.7,98,0.00,,---,0.00,VWS V14.01,2013-01-28 17:16:00,
2013-01-28 12:21:00,40.3,39.8,29.87,South,190,7.2,8.1,98,0.00,,---,0.00,VWS V14.01,2013-01-28 17:21:00,
2013-01-28 12:26:00,40.5,39.9,29.87,South,169,6.3,6.3,98,0.00,,---,0.00,VWS V14.01,2013-01-28 17:26:00,
2013-01-28 12:31:00,40.6,40.1,29.87,WSW,252,5.4,6.3,98,0.00,,---,0.00,VWS V14.01,2013-01-28 17:31:00,
2013-01-28 12:36:00,40.6,40.1,29.84,South,177,16.6,16.6,98,0.00,,---,0.00,VWS V14.01,2013-01-28 17:36:00,
2013-01-28 12:41:00,41.0,40.5,29.84,South,177,11.6,12.5,98,0.00,,---,0.00,VWS V14.01,2013-01-28 17:41:00,
2013-01-28 12:46:00,41.2,40.7,29.84,SSE,150,7.2,7.2,98,0.00,,---,0.00,VWS V14.01,2013-01-28 17:46:00,
2013-01-28 12:51:00,41.2,40.7,29.84,South,183,8.1,8.1,98,0.00,,---,0.00,VWS V14.01,2013-01-28 17:51:00,
2013-01-28 12:56:00,41.4,40.8,29.84,SSW,208,10.7,10.7,98,0.00,,---,0.00,VWS V14.01,2013-01-28 17:56:00,
2013-01-28 13:02:00,41.4,40.8,29.84,SSW,211,7.2,7.2,98,0.00,,---,0.00,VWS V14.01,2013-01-28 18:02:00,
2013-01-28 13:07:00,41.7,41.2,29.84,SSW,212,7.2,16.6,98,0.04,,---,0.04,VWS V14.01,2013-01-28 18:07:00,
2013-01-28 13:12:00,41.7,41.2,29.84,West,280,6.3,7.2,98,0.04,,---,0.04,VWS V14.01,2013-01-28 18:12:00,
2013-01-28 13:17:00,41.7,41.2,29.84,SSW,199,5.4,16.6,98,0.08,,---,0.08,VWS V14.01,2013-01-28 18:17:00,
2013-01-28 13:22:00,41.9,41.4,29.84,South,181,8.1,11.6,98,0.08,,---,0.08,VWS V14.01,2013-01-28 18:22:00,
2013-01-28 13:27:00,42.1,41.6,29.84,SSE,166,6.3,12.5,98,0.08,,---,0.08,VWS V14.01,2013-01-28 18:27:00,
2013-01-28 13:32:00,42.1,41.6,29.84,SW,219,5.4,8.1,98,0.12,,---,0.12,VWS V14.01,2013-01-28 18:32:00,
2013-01-28 13:37:00,42.1,41.6,29.84,South,173,5.4,8.1,98,0.12,,---,0.12,VWS V14.01,2013-01-28 18:37:00,
2013-01-28 13:42:00,42.3,41.7,29.84,SW,230,5.4,8.1,98,0.16,,---,0.16,VWS V14.01,2013-01-28 18:42:00,
2013-01-28 13:47:00,42.3,41.7,29.84,WSW,258,11.6,11.6,98,0.16,,---,0.16,VWS V14.01,2013-01-28 18:47:00,
2013-01-28 13:52:00,42.4,41.9,29.84,SSE,164,5.4,8.1,98,0.16,,---,0.16,VWS V14.01,2013-01-28 18:52:00,
2013-01-28 13:57:00,42.4,41.9,29.84,South,182,0.0,8.1,98,0.20,,---,0.20,VWS V14.01,2013-01-28 18:57:00,
2013-01-28 14:02:00,42.4,41.9,29.84,SW,226,10.7,16.6,98,0.20,,---,0.20,VWS V14.01,2013-01-28 19:02:00,
2013-01-28 14:07:00,42.6,42.1,29.84,WSW,246,10.7,10.7,98,0.16,,---,0.20,VWS V14.01,2013-01-28 19:07:00,
2013-01-28 14:13:00,42.4,41.9,29.84,WSW,242,8.1,12.5,98,0.20,,---,0.24,VWS V14.01,2013-01-28 19:13:00,
2013-01-28 14:18:00,42.4,41.9,29.84,SSE,159,6.3,9.8,98,0.16,,---,0.24,VWS V14.01,2013-01-28 19:18:00,
2013-01-28 14:23:00,42.4,41.9,29.84,SSE,158,6.3,10.7,98,0.16,,---,0.24,VWS V14.01,2013-01-28 19:23:00,
2013-01-28 14:28:00,42.4,41.9,29.84,South,191,10.7,10.7,98,0.16,,---,0.24,VWS V14.01,2013-01-28 19:28:00,
2013-01-28 14:33:00,42.4,41.9,29.84,South,190,0.0,0.0,98,0.16,,---,0.28,VWS V14.01,2013-01-28 19:33:00,
2013-01-28 14:38:00,42.4,41.9,29.84,SSW,196,9.8,9.8,98,0.16,,---,0.28,VWS V14.01,2013-01-28 19:38:00,
2013-01-28 14:43:00,42.3,41.7,29.84,SW,219,5.4,11.6,98,0.12,,---,0.28,VWS V14.01,2013-01-28 19:43:00,
2013-01-28 14:48:00,42.3,41.7,29.84,SSW,202,7.2,7.2,98,0.16,,---,0.31,VWS V14.01,2013-01-28 19:48:00,
2013-01-28 14:53:00,42.3,41.7,29.84,South,187,0.0,8.1,98,0.16,,---,0.31,VWS V14.01,2013-01-28 19:53:00,
2013-01-28 14:58:00,42.3,41.7,29.84,SSW,198,11.6,11.6,98,0.12,,---,0.31,VWS V14.01,2013-01-28 19:58:00,
2013-01-28 15:03:00,42.3,41.7,29.84,South,176,4.5,4.5,98,0.12,,---,0.31,VWS V14.01,2013-01-28 20:03:00,
2013-01-28 15:09:00,42.3,41.7,29.84,South,190,5.4,8.1,98,0.12,,---,0.31,VWS V14.01,2013-01-28 20:09:00,
2013-01-28 15:14:00,42.3,41.7,29.84,South,187,8.1,11.6,98,0.08,,---,0.31,VWS V14.01,2013-01-28 20:14:00,
2013-01-28 15:19:00,42.3,41.7,29.84,SE,143,0.0,7.2,98,0.08,,---,0.31,VWS V14.01,2013-01-28 20:19:00,
2013-01-28 15:24:00,42.3,41.7,29.84,SSW,210,8.1,8.1,98,0.12,,---,0.35,VWS V14.01,2013-01-28 20:24:00,
2013-01-28 15:29:00,42.3,41.7,29.84,SSW,212,5.4,5.4,98,0.12,,---,0.35,VWS V14.01,2013-01-28 20:29:00,
2013-01-28 15:34:00,42.3,41.7,29.84,WSW,241,0.0,7.2,98,0.08,,---,0.35,VWS V14.01,2013-01-28 20:34:00,
2013-01-28 15:39:00,42.3,41.7,29.87,SSW,194,7.2,7.2,98,0.08,,---,0.35,VWS V14.01,2013-01-28 20:39:00,
2013-01-28 15:44:00,42.1,41.6,29.87,WSW,246,0.0,0.0,98,0.08,,---,0.35,VWS V14.01,2013-01-28 20:44:00,
2013-01-28 15:49:00,42.3,41.7,29.87,SW,236,6.3,6.3,98,0.04,,---,0.35,VWS V14.01,2013-01-28 20:49:00,
2013-01-28 15:54:00,42.3,41.7,29.87,SW,219,6.3,7.2,98,0.04,,---,0.35,VWS V14.01,2013-01-28 20:54:00,
2013-01-28 15:59:00,42.3,41.7,29.87,SSW,206,5.4,5.4,98,0.04,,---,0.35,VWS V14.01,2013-01-28 20:59:00,
2013-01-28 16:05:00,42.4,41.9,29.87,SW,232,5.4,6.3,98,0.04,,---,0.35,VWS V14.01,2013-01-28 21:05:00,
2013-01-28 16:10:00,42.4,41.9,29.87,West,274,0.0,6.3,98,0.04,,---,0.35,VWS V14.01,2013-01-28 21:10:00,
2013-01-28 16:15:00,42.4,41.9,29.87,WSW,245,6.3,6.3,98,0.12,,---,0.43,VWS V14.01,2013-01-28 21:15:00,
2013-01-28 16:20:00,42.6,42.1,29.87,WNW,287,0.0,7.2,98,0.12,,---,0.43,VWS V14.01,2013-01-28 21:20:00,
2013-01-28 16:25:00,42.8,42.3,29.87,WNW,288,6.3,7.2,98,0.08,,---,0.43,VWS V14.01,2013-01-28 21:25:00,
2013-01-28 16:30:00,42.8,42.3,29.87,NW,314,0.0,4.5,98,0.08,,---,0.43,VWS V14.01,2013-01-28 21:30:00,
2013-01-28 16:35:00,42.8,42.3,29.87,WNW,282,6.3,7.2,98,0.08,,---,0.43,VWS V14.01,2013-01-28 21:35:00,
2013-01-28 16:40:00,42.8,42.3,29.87,NW,304,5.4,6.3,98,0.08,,---,0.43,VWS V14.01,2013-01-28 21:40:00,
2013-01-28 16:45:00,42.8,42.3,29.87,NW,317,6.3,10.7,98,0.08,,---,0.43,VWS V14.01,2013-01-28 21:45:00,
2013-01-28 16:50:00,43.0,42.5,29.87,West,270,16.6,16.6,98,0.08,,---,0.43,VWS V14.01,2013-01-28 21:50:00,
2013-01-28 16:55:00,43.2,42.6,29.90,NW,309,6.3,6.3,98,0.08,,---,0.43,VWS V14.01,2013-01-28 21:55:00,
2013-01-28 17:00:00,43.2,42.6,29.90,WNW,297,6.3,6.3,98,0.08,,---,0.43,VWS V14.01,2013-01-28 22:00:00,
2013-01-28 17:05:00,43.0,42.5,29.90,NW,326,8.1,8.1,98,0.08,,---,0.43,VWS V14.01,2013-01-28 22:05:00,
2013-01-28 17:10:00,42.8,42.3,29.90,West,260,20.1,20.1,98,0.08,,---,0.43,VWS V14.01,2013-01-28 22:10:00,
2013-01-28 17:15:00,42.8,42.3,29.90,NW,325,5.4,10.7,98,0.00,,---,0.43,VWS V14.01,2013-01-28 22:15:00,
2013-01-28 17:20:00,42.4,41.9,29.90,WSW,242,6.3,12.5,98,0.00,,---,0.43,VWS V14.01,2013-01-28 22:20:00,
2013-01-28 17:25:00,42.1,41.6,29.90,West,277,16.1,21.9,98,0.00,,---,0.43,VWS V14.01,2013-01-28 22:25:00,
2013-01-28 17:30:00,41.9,41.4,29.90,WNW,293,8.9,9.8,98,0.00,,---,0.43,VWS V14.01,2013-01-28 22:30:00,
2013-01-28 17:36:00,41.7,41.2,29.90,North,357,5.4,10.7,98,0.00,,---,0.43,VWS V14.01,2013-01-28 22:36:00,
2013-01-28 17:41:00,41.5,41.0,29.93,West,279,7.2,9.8,98,0.00,,---,0.43,VWS V14.01,2013-01-28 22:41:00,
2013-01-28 17:46:00,41.5,41.0,29.93,WNW,282,10.7,10.7,98,0.00,,---,0.43,VWS V14.01,2013-01-28 22:46:00,
2013-01-28 17:51:00,41.4,40.8,29.93,NW,315,8.1,10.7,98,0.00,,---,0.43,VWS V14.01,2013-01-28 22:51:00,
2013-01-28 17:56:00,41.2,40.7,29.93,NW,322,6.3,6.3,98,0.00,,---,0.43,VWS V14.01,2013-01-28 22:56:00,
2013-01-28 18:01:00,41.2,40.7,29.93,North,3,7.2,8.1,98,0.00,,---,0.43,VWS V14.01,2013-01-28 23:01:00,
2013-01-28 18:06:00,40.8,40.3,29.93,NW,322,6.3,11.6,98,0.00,,---,0.43,VWS V14.01,2013-01-28 23:06:00,
2013-01-28 18:11:00,40.5,39.9,29.93,NNW,334,15.2,15.2,98,0.00,,---,0.43,VWS V14.01,2013-01-28 23:11:00,
2013-01-28 18:16:00,40.3,39.8,29.93,WNW,296,10.7,10.7,98,0.00,,---,0.43,VWS V14.01,2013-01-28 23:16:00,
2013-01-28 18:21:00,39.9,39.4,29.93,North,351,8.1,8.1,98,0.00,,---,0.43,VWS V14.01,2013-01-28 23:21:00,
2013-01-28 18:26:00,39.7,39.2,29.93,NNW,333,10.7,15.2,98,0.00,,---,0.43,VWS V14.01,2013-01-28 23:26:00,
2013-01-28 18:31:00,39.4,38.9,29.93,WNW,298,7.2,8.1,98,0.00,,---,0.43,VWS V14.01,2013-01-28 23:31:00,
2013-01-28 18:36:00,39.4,38.9,29.96,NNW,345,12.5,16.1,98,0.00,,---,0.43,VWS V14.01,2013-01-28 23:36:00,
2013-01-28 18:42:00,39.2,38.7,29.96,NNW,341,9.8,9.8,98,0.00,,---,0.43,VWS V14.01,2013-01-28 23:42:00,
2013-01-28 18:47:00,39.0,38.5,29.96,NNW,338,8.1,13.4,98,0.00,,---,0.43,VWS V14.01,2013-01-28 23:47:00,
2013-01-28 18:52:00,38.8,38.3,29.96,NW,323,8.1,8.9,98,0.00,,---,0.43,VWS V14.01,2013-01-28 23:52:00,
2013-01-28 18:57:00,38.8,38.3,29.96,NW,304,6.3,6.3,98,0.00,,---,0.43,VWS V14.01,2013-01-28 23:57:00,
2013-01-28 19:02:00,38.7,38.2,29.96,NW,317,9.8,12.5,98,0.00,,---,0.43,VWS V14.01,2013-01-29 00:02:00,
2013-01-28 19:07:00,38.5,38.0,29.96,NNW,328,6.3,7.2,98,0.00,,---,0.43,VWS V14.01,2013-01-29 00:07:00,
2013-01-28 19:12:00,38.3,37.8,29.96,NNW,335,10.7,10.7,98,0.00,,---,0.43,VWS V14.01,2013-01-29 00:12:00,
2013-01-28 19:17:00,38.1,37.6,29.96,WNW,302,15.2,21.9,98,0.00,,---,0.43,VWS V14.01,2013-01-29 00:17:00,
2013-01-28 19:23:00,37.9,37.4,29.96,NNW,345,17.4,17.4,98,0.00,,---,0.43,VWS V14.01,2013-01-29 00:23:00,
2013-01-28 19:28:00,37.8,37.2,29.96,NNW,341,8.1,15.2,98,0.00,,---,0.43,VWS V14.01,2013-01-29 00:28:00,
2013-01-28 19:33:00,37.6,37.1,29.96,West,281,7.2,11.6,98,0.00,,---,0.43,VWS V14.01,2013-01-29 00:33:00,
2013-01-28 19:38:00,37.6,37.1,29.96,West,280,8.1,8.1,98,0.00,,---,0.43,VWS V14.01,2013-01-29 00:38:00,
2013-01-28 19:43:00,37.4,36.9,29.96,WNW,297,10.7,14.3,98,0.00,,---,0.43,VWS V14.01,2013-01-29 00:43:00,
2013-01-28 19:48:00,37.4,36.9,29.96,West,280,10.7,11.6,98,0.00,,---,0.43,VWS V14.01,2013-01-29 00:48:00,
2013-01-28 19:53:00,37.4,36.9,29.96,NNW,335,5.4,12.5,98,0.00,,---,0.43,VWS V14.01,2013-01-29 00:53:00,
2013-01-28 19:58:00,37.2,36.7,29.96,NNW,327,6.3,6.3,98,0.00,,---,0.43,VWS V14.01,2013-01-29 00:58:00,
2013-01-28 20:03:00,37.2,36.7,29.96,WNW,295,10.7,11.6,98,0.00,,---,0.43,VWS V14.01,2013-01-29 01:03:00,
2013-01-28 20:08:00,37.0,36.5,29.99,NW,311,6.3,12.5,98,0.00,,---,0.43,VWS V14.01,2013-01-29 01:08:00,
2013-01-28 20:13:00,37.0,36.5,29.99,NW,321,10.7,10.7,98,0.00,,---,0.43,VWS V14.01,2013-01-29 01:13:00,
2013-01-28 20:18:00,37.0,36.5,29.99,NW,316,7.2,7.2,98,0.00,,---,0.43,VWS V14.01,2013-01-29 01:18:00,
2013-01-28 20:23:00,36.9,36.3,29.99,NW,320,5.4,5.4,98,0.00,,---,0.43,VWS V14.01,2013-01-29 01:23:00,
2013-01-28 20:28:00,36.9,36.3,29.99,NW,309,8.1,9.8,98,0.00,,---,0.43,VWS V14.01,2013-01-29 01:28:00,
2013-01-28 20:33:00,36.7,36.2,29.99,NW,309,5.4,10.7,98,0.00,,---,0.43,VWS V14.01,2013-01-29 01:33:00,
2013-01-28 20:38:00,36.7,36.2,29.99,WNW,293,6.3,10.7,98,0.00,,---,0.43,VWS V14.01,2013-01-29 01:38:00,
2013-01-28 20:43:00,36.5,36.0,29.99,NNW,329,6.3,6.3,98,0.00,,---,0.43,VWS V14.01,2013-01-29 01:43:00,
2013-01-28 20:48:00,36.3,35.8,29.99,NNW,342,7.2,8.1,98,0.00,,---,0.43,VWS V14.01,2013-01-29 01:48:00,
2013-01-28 20:53:00,36.3,35.8,29.99,NW,317,6.3,6.3,98,0.00,,---,0.43,VWS V14.01,2013-01-29 01:53:00,
2013-01-28 20:58:00,36.3,35.8,29.99,NW,314,7.2,7.2,98,0.00,,---,0.43,VWS V14.01,2013-01-29 01:58:00,
2013-01-28 21:03:00,36.1,35.6,29.99,NW,312,7.2,7.2,98,0.00,,---,0.43,VWS V14.01,2013-01-29 02:03:00,
2013-01-28 21:08:00,36.1,35.6,29.99,WNW,287,0.0,0.0,98,0.00,,---,0.43,VWS V14.01,2013-01-29 02:08:00,
2013-01-28 21:14:00,36.0,35.5,29.99,NW,311,0.0,5.4,98,0.00,,---,0.43,VWS V14.01,2013-01-29 02:14:00,
2013-01-28 21:19:00,36.0,35.5,29.99,NW,311,0.0,0.0,98,0.00,,---,0.43,VWS V14.01,2013-01-29 02:19:00,
2013-01-28 21:24:00,35.8,35.3,29.99,NW,311,0.0,0.0,98,0.00,,---,0.43,VWS V14.01,2013-01-29 02:24:00,
2013-01-28 21:29:00,35.8,35.3,29.99,NW,311,0.0,0.0,98,0.00,,---,0.43,VWS V14.01,2013-01-29 02:29:00,
2013-01-28 21:34:00,35.8,35.3,29.99,NW,311,0.0,0.0,98,0.00,,---,0.43,VWS V14.01,2013-01-29 02:34:00,
2013-01-28 21:39:00,35.8,35.3,29.99,NW,311,0.0,0.0,98,0.00,,---,0.43,VWS V14.01,2013-01-29 02:39:00,
2013-01-28 21:44:00,35.6,35.1,29.99,NW,311,0.0,0.0,98,0.00,,---,0.43,VWS V14.01,2013-01-29 02:44:00,
2013-01-28 21:49:00,35.6,35.1,29.99,NW,311,0.0,0.0,98,0.00,,---,0.43,VWS V14.01,2013-01-29 02:49:00,
2013-01-28 21:54:00,35.6,35.1,29.99,NW,311,0.0,0.0,98,0.00,,---,0.43,VWS V14.01,2013-01-29 02:54:00,
2013-01-28 21:59:00,35.6,35.1,29.99,NW,311,0.0,0.0,98,0.00,,---,0.43,VWS V14.01,2013-01-29 02:59:00,
2013-01-28 22:04:00,35.4,34.9,29.99,NW,311,0.0,0.0,98,0.00,,---,0.43,VWS V14.01,2013-01-29 03:04:00,
2013-01-28 22:09:00,35.4,34.9,29.99,NW,311,0.0,0.0,98,0.00,,---,0.43,VWS V14.01,2013-01-29 03:09:00,
2013-01-28 22:14:00,35.4,34.9,29.99,NW,311,0.0,0.0,98,0.00,,---,0.43,VWS V14.01,2013-01-29 03:14:00,
2013-01-28 22:20:00,35.4,34.9,29.99,NW,311,0.0,0.0,98,0.00,,---,0.43,VWS V14.01,2013-01-29 03:20:00,
2013-01-28 22:25:00,35.4,34.9,29.99,NW,311,0.0,0.0,98,0.00,,---,0.43,VWS V14.01,2013-01-29 03:25:00,
2013-01-28 22:30:00,35.2,34.7,29.99,NW,311,0.0,0.0,98,0.00,,---,0.43,VWS V14.01,2013-01-29 03:30:00,
2013-01-28 22:35:00,35.2,34.7,29.99,NW,311,0.0,0.0,98,0.00,,---,0.43,VWS V14.01,2013-01-29 03:35:00,
2013-01-28 22:40:00,35.1,34.5,29.99,NW,311,0.0,0.0,98,0.00,,---,0.43,VWS V14.01,2013-01-29 03:40:00,
2013-01-28 22:45:00,35.1,34.5,29.99,NW,311,0.0,0.0,98,0.00,,---,0.43,VWS V14.01,2013-01-29 03:45:00,
2013-01-28 22:50:00,35.1,34.5,29.99,NW,320,8.9,8.9,98,0.00,,---,0.43,VWS V14.01,2013-01-29 03:50:00,
2013-01-28 22:55:00,35.1,34.5,30.02,NW,311,0.0,0.0,98,0.00,,---,0.43,VWS V14.01,2013-01-29 03:55:00,
2013-01-28 23:00:00,35.1,34.5,30.02,NW,325,0.0,5.4,98,0.00,,---,0.43,VWS V14.01,2013-01-29 04:00:00,
2013-01-28 23:05:00,35.1,34.5,30.02,NW,325,0.0,0.0,98,0.00,,---,0.43,VWS V14.01,2013-01-29 04:05:00,
2013-01-28 23:10:00,35.1,34.5,29.99,North,5,4.5,8.1,98,0.00,,---,0.43,VWS V14.01,2013-01-29 04:10:00,
2013-01-28 23:15:00,35.1,34.5,29.99,North,355,0.0,0.0,98,0.00,,---,0.43,VWS V14.01,2013-01-29 04:15:00,
2013-01-28 23:20:00,35.1,34.5,29.99,NNW,346,0.0,0.0,98,0.00,,---,0.43,VWS V14.01,2013-01-29 04:20:00,
2013-01-28 23:25:00,35.1,34.5,29.99,North,352,6.3,6.3,98,0.00,,---,0.43,VWS V14.01,2013-01-29 04:25:00,
2013-01-28 23:31:00,35.1,34.5,29.99,North,352,0.0,0.0,98,0.00,,---,0.43,VWS V14.01,2013-01-29 04:31:00,
2013-01-28 23:36:00,35.1,34.5,29.99,North,352,0.0,0.0,98,0.00,,---,0.43,VWS V14.01,2013-01-29 04:36:00,
2013-01-28 23:41:00,34.9,34.4,30.02,North,352,0.0,0.0,98,0.00,,---,0.43,VWS V14.01,2013-01-29 04:41:00,
2013-01-28 23:46:00,34.9,34.4,30.02,North,352,0.0,0.0,98,0.00,,---,0.43,VWS V14.01,2013-01-29 04:46:00,
2013-01-28 23:51:00,34.9,34.4,30.02,North,352,0.0,0.0,98,0.00,,---,0.43,VWS V14.01,2013-01-29 04:51:00,
2013-01-28 23:56:00,34.7,34.2,30.02,North,352,0.0,0.0,98,0.00,,---,0.43,VWS V14.01,2013-01-29 04:56:00,